Time;durP1;ratioP1;P1;durP2;ratioP2;P2;SDS_P1;SDS_P2;PMS_P1;PMS_P2;Temp;Humidity;BMP_temperature;BMP_pressure;BME280_temperature;BME280_humidity;BME280_pressure;Samples;Min_cycle;Max_cycle;Signal;HPM_P1;HPM_P2
2022/02/18 00:01:16;;;;;;;3.90;1.90;;;5.10;99.90;;;5.96;83.86;-19929.91;5110340;28;20274;-59
2022/02/18 00:03:47;;;;;;;2.53;1.30;;;5.10;99.90;;;5.99;83.72;-19930.75;5113845;28;20222;-61
2022/02/18 00:06:16;;;;;;;4.00;1.50;;;5.20;99.90;;;5.72;85.48;-19921.69;5114613;28;20540;-60
2022/02/18 00:08:45;;;;;;;6.37;1.70;;;5.10;99.90;;;5.70;85.68;-19920.84;5114706;28;20238;-60
2022/02/18 00:11:14;;;;;;;4.80;1.63;;;5.10;99.90;;;5.66;85.66;-19919.66;5114264;28;20234;-61
2022/02/18 00:13:42;;;;;;;6.10;1.53;;;5.00;99.90;;;5.98;83.56;-19930.59;5114168;28;20309;-59
2022/02/18 00:16:10;;;;;;;2.50;1.47;;;5.10;99.90;;;5.86;83.92;-19926.50;5113921;28;20227;-59
2022/02/18 00:18:38;;;;;;;3.77;1.47;;;5.10;99.90;;;5.74;84.56;-19922.22;5114327;28;20272;-61
2022/02/18 00:21:06;;;;;;;2.90;1.17;;;5.10;99.90;;;5.78;84.78;-19923.59;5114855;28;20294;-59
2022/02/18 00:23:36;;;;;;;3.53;1.57;;;5.00;99.90;;;5.96;83.42;-19929.91;5113642;28;20280;-60
2022/02/18 00:26:04;;;;;;;3.67;1.63;;;5.00;99.90;;;5.83;83.27;-19925.47;5113936;28;20307;-60
2022/02/18 00:28:32;;;;;;;3.57;1.47;;;5.00;99.90;;;5.75;83.51;-19922.56;5113953;28;20331;-60
2022/02/18 00:31:01;;;;;;;3.30;1.30;;;5.00;99.90;;;5.70;84.85;-19920.84;5113758;28;20234;-60
2022/02/18 00:33:29;;;;;;;3.90;1.33;;;5.00;99.90;;;6.01;83.12;-19931.44;5113839;28;20297;-59
2022/02/18 00:35:58;;;;;;;4.27;1.40;;;5.10;99.90;;;6.13;82.15;-19935.56;5114212;28;20657;-60
2022/02/18 00:38:26;;;;;;;4.37;1.40;;;5.20;99.90;;;6.27;80.68;-19940.16;5113740;28;20318;-60
2022/02/18 00:40:55;;;;;;;3.20;1.40;;;5.30;99.90;;;6.36;79.72;-19943.25;5113069;28;20744;-59
2022/02/18 00:43:23;;;;;;;2.97;1.10;;;5.40;99.90;;;6.32;79.97;-19942.03;5113079;28;20314;-59
2022/02/18 00:45:51;;;;;;;4.80;1.50;;;5.40;99.90;;;6.49;79.04;-19947.69;5113311;28;20534;-59
2022/02/18 00:48:19;;;;;;;4.43;1.70;;;5.50;99.90;;;6.49;78.98;-19947.69;5113127;28;20228;-59
2022/02/18 00:50:47;;;;;;;2.70;1.10;;;5.60;99.90;;;6.51;79.07;-19948.53;5113693;28;20258;-60
2022/02/18 00:53:15;;;;;;;3.60;1.17;;;5.60;99.90;;;6.61;79.16;-19951.97;5113409;28;20233;-60
2022/02/18 00:55:44;;;;;;;4.53;0.97;;;5.70;99.90;;;6.87;79.09;-19960.66;5113111;28;20308;-60
2022/02/18 00:58:14;;;;;;;1.83;1.40;;;5.80;99.90;;;6.87;80.49;-19960.66;5112989;28;20242;-60
2022/02/18 01:00:42;;;;;;;2.53;1.00;;;5.90;99.90;;;6.97;80.66;-19964.25;5113225;28;20276;-61
2022/02/18 01:03:12;;;;;;;2.70;0.93;;;6.00;99.90;;;7.01;81.29;-19965.47;5114001;28;20183;-60
2022/02/18 01:05:40;;;;;;;4.30;1.10;;;6.00;99.90;;;6.92;82.21;-19962.56;5113337;28;20644;-60
2022/02/18 01:08:08;;;;;;;3.03;0.80;;;6.10;99.90;;;6.97;83.20;-19964.09;5113241;28;20286;-60
2022/02/18 01:10:36;;;;;;;4.13;1.10;;;6.00;99.90;;;6.97;84.44;-19964.25;5112559;28;20240;-60
2022/02/18 01:13:04;;;;;;;3.37;1.20;;;6.10;99.90;;;7.02;84.28;-19965.78;5112503;28;20309;-60
2022/02/18 01:15:34;;;;;;;2.23;0.80;;;6.10;99.90;;;6.97;86.15;-19964.25;5112281;28;20204;-59
2022/02/18 01:18:02;;;;;;;2.30;1.33;;;6.10;99.90;;;6.95;85.64;-19963.56;5113606;28;20237;-58
2022/02/18 01:20:30;;;;;;;3.83;1.10;;;6.10;99.90;;;7.13;86.06;-19969.72;5112717;28;20222;-59
2022/02/18 01:22:58;;;;;;;1.73;1.23;;;6.10;99.90;;;6.98;86.04;-19964.44;5112831;28;20252;-60
2022/02/18 01:25:26;;;;;;;6.57;1.20;;;6.10;99.90;;;7.05;85.67;-19966.81;5112245;28;20901;-60
2022/02/18 01:27:56;;;;;;;4.10;1.30;;;6.10;99.90;;;6.89;86.92;-19961.53;5112640;28;20235;-59
2022/02/18 01:30:26;;;;;;;3.83;1.50;;;6.10;99.90;;;6.91;88.20;-19962.22;5112549;28;20203;-60
2022/02/18 01:32:55;;;;;;;3.43;1.40;;;6.00;99.90;;;6.99;87.17;-19964.94;5113553;28;20201;-60
2022/02/18 01:35:24;;;;;;;6.57;1.73;;;6.10;99.90;;;6.91;87.82;-19962.03;5112375;28;20306;-60
2022/02/18 01:37:53;;;;;;;4.80;1.63;;;6.00;99.90;;;6.79;88.92;-19957.94;5112665;28;20659;-59
2022/02/18 01:40:22;;;;;;;6.00;1.70;;;6.00;99.90;;;6.99;88.67;-19964.78;5112168;28;20258;-60
2022/02/18 01:42:51;;;;;;;4.37;1.43;;;6.00;99.90;;;7.07;87.94;-19967.69;5112074;28;20597;-60
2022/02/18 01:45:19;;;;;;;5.30;1.50;;;6.00;99.90;;;6.83;89.97;-19959.47;5112569;28;20301;-60
2022/02/18 01:47:47;;;;;;;4.60;1.60;;;6.00;99.90;;;6.83;90.28;-19959.47;5113280;28;20207;-59
2022/02/18 01:50:17;;;;;;;3.90;1.30;;;5.90;99.90;;;6.95;90.12;-19963.56;5112250;27;20795;-59
2022/02/18 01:52:49;;;;;;;3.87;1.40;;;6.00;99.90;;;6.77;91.10;-19957.44;5112339;28;20312;-60
2022/02/18 01:55:19;;;;;;;2.60;1.20;;;5.90;99.90;;;6.86;91.39;-19960.34;5112263;27;20252;-58
2022/02/18 01:57:51;;;;;;;5.53;1.60;;;5.90;99.90;;;6.87;92.04;-19960.84;5112336;28;20253;-60
2022/02/18 02:00:22;;;;;;;3.40;1.10;;;5.90;99.90;;;6.77;92.28;-19957.44;5112221;28;20218;-61
2022/02/18 02:02:51;;;;;;;4.60;1.97;;;5.90;99.90;;;6.83;93.44;-19959.31;5112894;28;20217;-59
2022/02/18 02:05:21;;;;;;;3.53;1.43;;;5.80;99.90;;;6.67;94.83;-19953.84;5111918;28;20222;-59
2022/02/18 02:07:51;;;;;;;4.27;1.40;;;5.80;99.90;;;6.65;95.54;-19953.16;5112407;27;20289;-60
2022/02/18 02:10:21;;;;;;;5.63;2.67;;;5.80;99.90;;;6.86;95.09;-19960.34;5111835;28;20621;-59
2022/02/18 02:12:51;;;;;;;4.93;2.00;;;5.80;99.90;;;6.48;99.50;-19947.34;5111922;28;20231;-60
2022/02/18 02:15:22;;;;;;;3.17;1.70;;;5.70;99.90;;;6.61;100.00;-19951.78;5112250;28;20317;-59
2022/02/18 02:17:51;;;;;;;4.03;1.63;;;5.70;99.90;;;6.61;100.00;-19951.78;5112652;28;20185;-59
2022/02/18 02:20:22;;;;;;;4.53;1.37;;;5.60;99.90;;;6.48;100.00;-19947.50;5111631;28;20615;-60
2022/02/18 02:22:51;;;;;;;4.37;1.10;;;5.60;99.90;;;6.38;100.00;-19943.94;5111167;28;20233;-59
2022/02/18 02:25:19;;;;;;;2.13;1.40;;;5.50;99.90;;;6.39;100.00;-19944.44;5110796;28;20317;-59
2022/02/18 02:27:47;;;;;;;3.20;1.60;;;5.50;99.90;;;6.34;100.00;-19942.72;5111089;28;20223;-60
2022/02/18 02:30:16;;;;;;;3.83;1.60;;;5.50;99.90;;;6.21;100.00;-19938.13;5111657;28;20234;-59
2022/02/18 02:32:44;;;;;;;4.40;1.40;;;5.40;99.90;;;6.27;100.00;-19940.34;5111696;28;20314;-60
2022/02/18 02:35:12;;;;;;;1.57;1.10;;;5.40;99.90;;;6.36;100.00;-19943.25;5111405;28;20237;-59
2022/02/18 02:37:43;;;;;;;3.50;1.40;;;5.40;99.90;;;6.28;100.00;-19940.69;5111174;28;20640;-59
2022/02/18 02:40:18;;;;;;;3.93;1.37;;;5.40;99.90;;;6.15;100.00;-19936.41;5110506;28;20328;-59
2022/02/18 02:42:47;;;;;;;2.13;1.30;;;5.40;99.90;;;6.05;100.00;-19932.81;5110483;28;20242;-60
2022/02/18 02:45:16;;;;;;;1.83;1.27;;;5.30;99.90;;;6.01;100.00;-19931.44;5111352;28;20199;-59
2022/02/18 02:47:48;;;;;;;3.97;1.87;;;5.30;99.90;;;5.94;100.00;-19929.22;5111495;28;20621;-61
2022/02/18 02:50:17;;;;;;;4.40;2.03;;;5.20;99.90;;;5.97;100.00;-19930.09;5110964;28;20282;-60
2022/02/18 02:52:45;;;;;;;3.00;1.50;;;5.20;99.90;;;5.79;100.00;-19923.94;5110814;28;20233;-60
2022/02/18 02:55:15;;;;;;;4.83;1.83;;;5.10;99.90;;;5.60;100.00;-19917.44;5110847;28;20370;-59
2022/02/18 02:57:45;;;;;;;5.27;1.53;;;5.00;99.90;;;5.72;100.00;-19921.69;5110808;28;20619;-60
2022/02/18 03:00:15;;;;;;;4.07;1.57;;;4.90;99.90;;;5.57;100.00;-19916.56;5111579;28;20286;-59
2022/02/18 03:02:44;;;;;;;3.97;1.57;;;4.90;99.90;;;5.64;100.00;-19918.78;5111184;28;20209;-59
2022/02/18 03:05:15;;;;;;;5.00;1.50;;;4.90;99.90;;;5.51;100.00;-19914.34;5110851;28;20222;-60
2022/02/18 03:07:44;;;;;;;2.30;1.33;;;4.90;99.90;;;5.78;100.00;-19923.59;5110692;28;20225;-60
2022/02/18 03:10:14;;;;;;;5.97;1.30;;;4.90;99.90;;;5.97;100.00;-19930.25;5110548;28;20785;-59
2022/02/18 03:12:42;;;;;;;6.10;1.43;;;5.00;99.90;;;5.90;100.00;-19927.69;5110683;28;20233;-60
2022/02/18 03:15:10;;;;;;;4.77;1.40;;;5.00;99.90;;;5.78;100.00;-19923.59;5111183;28;20206;-59
2022/02/18 03:17:39;;;;;;;5.90;1.53;;;5.00;99.90;;;5.83;100.00;-19925.47;5110896;28;20295;-61
2022/02/18 03:20:09;;;;;;;2.97;1.43;;;5.00;99.90;;;5.96;99.20;-19929.91;5110837;28;20321;-59
2022/02/18 03:22:37;;;;;;;5.87;1.77;;;5.00;99.90;;;6.09;97.37;-19934.19;5110680;28;20321;-60
2022/02/18 03:25:07;;;;;;;3.10;2.03;;;5.10;99.90;;;6.12;95.19;-19935.38;5110593;28;20249;-59
2022/02/18 03:27:37;;;;;;;4.93;1.80;;;5.20;99.90;;;5.95;96.97;-19929.41;5110722;28;20219;-59
2022/02/18 03:30:08;;;;;;;4.13;1.70;;;5.10;99.90;;;6.00;95.36;-19931.28;5111192;28;20223;-61
2022/02/18 03:32:37;;;;;;;3.87;1.57;;;5.10;99.90;;;5.96;94.74;-19929.91;5110214;28;20306;-59
2022/02/18 03:35:06;;;;;;;1.77;0.93;;;5.20;99.90;;;6.07;94.64;-19933.66;5110106;28;20254;-60
2022/02/18 03:37:34;;;;;;;3.90;1.40;;;5.20;99.90;;;6.04;92.68;-19932.66;5112172;28;20753;-59
2022/02/18 03:40:03;;;;;;;3.93;1.23;;;5.20;99.90;;;6.10;91.72;-19934.53;5114672;28;20534;-58
2022/02/18 03:42:31;;;;;;;3.80;1.30;;;5.30;99.90;;;6.19;91.95;-19937.78;5114447;28;20650;-59
2022/02/18 03:45:00;;;;;;;2.33;1.27;;;5.40;99.90;;;6.26;91.54;-19939.81;5115333;28;20292;-60
2022/02/18 03:47:28;;;;;;;3.63;1.43;;;5.40;99.90;;;6.31;91.25;-19941.53;5114096;28;20316;-60
2022/02/18 03:49:56;;;;;;;3.13;1.20;;;5.40;99.90;;;6.31;91.15;-19941.53;5114416;28;20687;-59
2022/02/18 03:52:24;;;;;;;3.50;1.40;;;5.40;99.90;;;6.51;90.25;-19948.53;5113960;27;20230;-60
2022/02/18 03:54:53;;;;;;;3.50;1.30;;;5.50;99.90;;;6.25;90.81;-19939.66;5114297;27;20329;-60
2022/02/18 03:57:21;;;;;;;6.87;1.57;;;5.50;99.90;;;6.49;90.06;-19947.69;5114138;28;20610;-58
2022/02/18 03:59:49;;;;;;;3.53;1.60;;;5.50;99.90;;;6.58;89.82;-19950.75;5114730;28;20252;-60
2022/02/18 04:02:18;;;;;;;5.07;1.40;;;5.60;99.90;;;6.74;88.92;-19956.41;5114068;27;20254;-60
2022/02/18 04:04:46;;;;;;;3.33;1.50;;;5.60;99.90;;;6.53;90.49;-19949.22;5114155;28;20254;-59
2022/02/18 04:07:14;;;;;;;3.70;1.80;;;5.60;99.90;;;6.41;91.03;-19945.13;5114281;28;20321;-60
2022/02/18 04:09:42;;;;;;;3.53;1.73;;;5.60;99.90;;;6.35;93.77;-19942.91;5113871;27;20243;-59
2022/02/18 04:12:11;;;;;;;4.00;1.50;;;5.50;99.90;;;6.55;91.08;-19949.72;5114331;28;20613;-60
2022/02/18 04:14:39;;;;;;;4.47;2.10;;;5.60;99.90;;;6.48;91.77;-19947.50;5113963;28;20655;-60
2022/02/18 04:17:07;;;;;;;5.73;1.90;;;5.60;99.90;;;6.65;90.29;-19953.31;5113810;27;20341;-58
2022/02/18 04:19:36;;;;;;;2.90;2.07;;;5.70;99.90;;;6.44;92.61;-19946.16;5113653;28;20649;-59
2022/02/18 04:22:24;;;;;;;3.17;1.70;;;5.70;99.90;;;6.69;91.16;-19954.53;5113688;28;20219;-60
2022/02/18 04:24:52;;;;;;;3.73;2.20;;;5.70;99.90;;;6.60;91.41;-19951.63;5113577;27;20328;-60
2022/02/18 04:27:20;;;;;;;3.57;1.70;;;5.70;99.90;;;6.68;91.32;-19954.34;5113710;27;20498;-59
2022/02/18 04:29:48;;;;;;;6.70;1.90;;;5.80;99.90;;;6.67;92.04;-19954.00;5114041;28;20226;-59
2022/02/18 04:32:16;;;;;;;4.07;1.63;;;5.80;99.90;;;6.84;90.83;-19959.66;5112978;28;20224;-61
2022/02/18 04:34:46;;;;;;;3.90;1.47;;;5.80;99.90;;;6.80;91.81;-19958.44;5113208;28;20772;-59
2022/02/18 04:37:14;;;;;;;5.13;1.50;;;5.80;99.90;;;6.68;93.23;-19954.34;5113522;28;20310;-60
2022/02/18 04:39:42;;;;;;;2.63;1.40;;;5.80;99.90;;;6.70;92.19;-19954.84;5113142;28;20226;-59
2022/02/18 04:42:10;;;;;;;4.77;1.90;;;5.80;99.90;;;6.92;92.12;-19962.38;5113839;28;20200;-59
2022/02/18 04:44:38;;;;;;;4.67;1.43;;;5.90;99.90;;;6.89;93.09;-19961.34;5112831;28;20219;-59
2022/02/18 04:47:06;;;;;;;5.53;1.90;;;5.90;99.90;;;6.89;93.38;-19961.53;5113222;27;20306;-60
2022/02/18 04:49:34;;;;;;;6.23;1.70;;;6.00;99.90;;;6.95;93.26;-19963.41;5113166;28;20332;-59
2022/02/18 04:52:19;;;;;;;3.73;1.93;;;6.00;99.90;;;6.78;95.77;-19957.59;5112905;28;20237;-59
2022/02/18 04:54:47;;;;;;;3.63;1.53;;;6.00;99.90;;;6.90;94.89;-19961.88;5112938;27;20242;-59
2022/02/18 04:57:15;;;;;;;4.83;1.60;;;6.00;99.90;;;6.84;95.77;-19959.66;5113317;28;20202;-59
2022/02/18 04:59:43;;;;;;;3.33;1.60;;;6.00;99.90;;;6.67;97.20;-19954.00;5113279;28;20349;-60
2022/02/18 05:02:13;;;;;;;2.93;1.80;;;5.90;99.90;;;6.69;97.71;-19954.69;5112804;28;20223;-59
2022/02/18 05:04:41;;;;;;;3.70;1.63;;;5.90;99.90;;;6.55;99.43;-19949.72;5112746;28;20230;-60
2022/02/18 05:07:09;;;;;;;3.70;1.57;;;5.80;99.90;;;6.40;100.00;-19944.59;5112988;28;20226;-60
2022/02/18 05:09:38;;;;;;;5.03;1.97;;;5.70;99.90;;;6.43;100.00;-19945.81;5112552;28;20591;-59
2022/02/18 05:12:07;;;;;;;4.37;1.80;;;5.70;99.90;;;6.35;100.00;-19942.91;5113401;28;20286;-59
2022/02/18 05:14:35;;;;;;;5.13;2.10;;;5.70;99.90;;;6.57;100.00;-19950.41;5112252;28;20232;-60
2022/02/18 05:17:04;;;;;;;4.77;2.50;;;5.70;99.90;;;6.56;100.00;-19950.09;5112496;28;20314;-60
2022/02/18 05:19:32;;;;;;;3.47;1.87;;;5.70;99.90;;;6.53;100.00;-19949.22;5112261;28;20259;-60
2022/02/18 05:22:00;;;;;;;5.13;2.13;;;5.70;99.90;;;6.51;100.00;-19948.53;5112582;28;20253;-60
2022/02/18 05:24:28;;;;;;;4.00;2.13;;;5.70;99.90;;;6.78;100.00;-19957.59;5111876;28;20194;-60
2022/02/18 05:26:57;;;;;;;6.03;2.20;;;5.80;99.90;;;6.56;100.00;-19950.09;5112894;28;20210;-59
2022/02/18 05:29:26;;;;;;;4.77;1.63;;;5.80;99.90;;;6.53;100.00;-19949.22;5111572;28;20223;-60
2022/02/18 05:31:53;;;;;;;3.33;1.90;;;5.80;99.90;;;6.56;100.00;-19950.09;5112053;28;20234;-59
2022/02/18 05:34:21;;;;;;;7.93;2.80;;;5.80;99.90;;;6.58;100.00;-19950.94;5112103;28;20262;-60
2022/02/18 05:36:49;;;;;;;5.93;2.00;;;5.80;99.90;;;6.77;100.00;-19957.25;5110867;28;20311;-59
2022/02/18 05:39:17;;;;;;;3.97;1.60;;;5.90;99.90;;;6.68;100.00;-19954.19;5111716;28;20294;-59
2022/02/18 05:41:46;;;;;;;5.67;1.37;;;5.90;99.90;;;6.68;100.00;-19954.19;5112762;28;20228;-60
2022/02/18 05:44:15;;;;;;;6.90;2.10;;;5.90;99.90;;;6.68;100.00;-19954.34;5112035;28;20349;-60
2022/02/18 05:46:43;;;;;;;3.17;2.00;;;5.90;99.90;;;6.64;100.00;-19952.81;5112176;28;20726;-60
2022/02/18 05:49:11;;;;;;;10.77;2.07;;;5.90;99.90;;;6.55;100.00;-19949.91;5112125;28;20231;-60
2022/02/18 05:51:39;;;;;;;4.83;1.63;;;5.80;99.90;;;6.75;100.00;-19956.75;5112385;28;20304;-60
2022/02/18 05:54:07;;;;;;;3.83;1.57;;;5.90;99.90;;;6.66;100.00;-19953.50;5112202;28;20645;-59
2022/02/18 05:56:35;;;;;;;3.00;1.60;;;5.90;99.90;;;6.78;100.00;-19957.59;5111689;28;20750;-59
2022/02/18 05:59:03;;;;;;;3.97;1.43;;;5.90;99.90;;;6.60;100.00;-19951.63;5111490;28;20321;-60
2022/02/18 06:01:33;;;;;;;4.00;1.43;;;5.90;99.90;;;6.60;100.00;-19951.63;5111215;28;20322;-59
2022/02/18 06:04:01;;;;;;;4.67;1.90;;;5.90;99.90;;;6.56;100.00;-19950.25;5111594;28;20237;-59
2022/02/18 06:06:29;;;;;;;5.53;1.40;;;5.80;99.90;;;6.69;100.00;-19954.69;5111956;28;20203;-60
2022/02/18 06:08:57;;;;;;;5.07;2.00;;;5.90;99.90;;;6.59;100.00;-19951.28;5112053;28;20202;-60
2022/02/18 06:11:25;;;;;;;7.77;1.90;;;5.90;99.90;;;6.60;100.00;-19951.63;5111335;28;20309;-59
2022/02/18 06:13:53;;;;;;;5.73;2.00;;;5.80;99.90;;;6.85;100.00;-19960.16;5111714;28;20321;-60
2022/02/18 06:16:21;;;;;;;4.93;1.80;;;5.80;99.90;;;6.78;100.00;-19957.59;5111604;28;20226;-60
2022/02/18 06:18:50;;;;;;;5.00;1.70;;;5.90;99.90;;;6.63;100.00;-19952.47;5111851;28;20227;-60
2022/02/18 06:21:19;;;;;;;5.80;2.03;;;5.90;99.90;;;6.73;100.00;-19956.06;5111820;28;20291;-59
2022/02/18 06:23:53;;;;;;;6.77;2.23;;;5.90;99.90;;;6.74;100.00;-19956.41;5111102;28;20206;-60
2022/02/18 06:26:21;;;;;;;6.17;2.67;;;5.90;99.90;;;6.87;100.00;-19960.66;5111370;27;20250;-60
2022/02/18 06:28:48;;;;;;;5.97;2.90;;;6.00;99.90;;;6.88;100.00;-19961.19;5111340;27;20245;-59
2022/02/18 06:31:18;;;;;;;7.97;3.40;;;6.00;99.90;;;7.01;100.00;-19965.47;5111140;27;20807;-60
2022/02/18 06:33:47;;;;;;;5.27;3.10;;;6.00;99.90;;;6.88;100.00;-19961.19;5111554;28;20229;-59
2022/02/18 06:36:16;;;;;;;5.60;2.43;;;6.00;99.90;;;6.83;100.00;-19959.31;5109091;28;20195;-60
2022/02/18 06:38:44;;;;;;;5.67;2.43;;;6.00;99.90;;;6.69;100.00;-19954.69;5111470;28;20207;-59
2022/02/18 06:41:14;;;;;;;7.27;2.67;;;6.00;99.90;;;6.79;100.00;-19958.13;5111555;28;20634;-61
2022/02/18 06:43:42;;;;;;;7.33;2.53;;;5.90;99.90;;;6.67;100.00;-19954.00;5111073;28;20219;-60
2022/02/18 06:46:11;;;;;;;7.03;2.43;;;5.90;99.90;;;6.44;100.00;-19945.97;5111105;28;20259;-59
2022/02/18 06:48:39;;;;;;;7.93;2.40;;;5.80;99.90;;;6.59;100.00;-19951.09;5110945;28;20624;-60
2022/02/18 06:51:07;;;;;;;6.50;1.90;;;5.80;99.90;;;6.62;100.00;-19952.13;5111001;28;20290;-59
2022/02/18 06:53:37;;;;;;;7.90;2.17;;;5.90;99.90;;;6.55;100.00;-19949.72;5110709;28;20219;-60
2022/02/18 06:56:06;;;;;;;4.17;1.57;;;5.90;99.90;;;6.78;100.00;-19957.75;5110833;28;20243;-60
2022/02/18 06:58:35;;;;;;;6.93;2.17;;;5.90;99.90;;;7.19;98.83;-19971.59;5110936;28;20739;-60
2022/02/18 07:01:03;;;;;;;5.97;2.23;;;6.10;99.90;;;7.15;98.61;-19970.25;5110921;28;20779;-60
2022/02/18 07:03:32;;;;;;;5.93;1.90;;;6.20;99.90;;;7.10;98.76;-19968.53;5110997;28;20208;-60
2022/02/18 07:06:02;;;;;;;7.23;2.73;;;6.30;99.90;;;7.11;99.76;-19968.88;5111303;28;20199;-61
2022/02/18 07:08:31;;;;;;;8.80;2.10;;;6.20;99.90;;;7.18;98.65;-19971.44;5110949;28;20231;-60
2022/02/18 07:11:01;;;;;;;8.33;2.70;;;6.30;99.90;;;7.29;96.88;-19975.03;5110577;28;20285;-60
2022/02/18 07:13:29;;;;;;;8.27;2.43;;;6.30;99.90;;;7.35;97.68;-19977.06;5113743;28;20302;-59
2022/02/18 07:15:57;;;;;;;9.87;2.03;;;6.40;99.90;;;7.63;96.58;-19986.66;5105954;27;20223;-60
2022/02/18 07:18:26;;;;;;;5.50;2.00;;;6.50;99.90;;;7.77;94.51;-19991.44;5115471;27;20286;-59
2022/02/18 07:20:55;;;;;;;8.03;2.77;;;6.60;99.90;;;7.82;94.87;-19993.13;5120746;27;20209;-60
2022/02/18 07:23:23;;;;;;;5.60;2.00;;;6.60;99.90;;;7.66;94.90;-19987.66;5121237;27;20216;-61
2022/02/18 07:25:51;;;;;;;3.50;2.07;;;6.60;99.90;;;7.77;94.92;-19991.25;5120378;27;20242;-60
2022/02/18 07:28:21;;;;;;;4.23;1.97;;;6.70;99.90;;;7.62;96.20;-19986.13;5115333;28;20302;-60
2022/02/18 07:30:49;;;;;;;8.90;2.50;;;6.70;99.90;;;7.86;93.83;-19994.34;5115959;28;20269;-60
2022/02/18 07:33:17;;;;;;;6.27;2.33;;;6.80;99.90;;;7.80;94.73;-19992.47;5121020;27;20299;-59
2022/02/18 07:35:45;;;;;;;4.93;2.40;;;6.80;99.90;;;7.78;95.45;-19991.78;5115274;28;20853;-59
2022/02/18 07:38:13;;;;;;;5.80;2.50;;;6.80;99.90;;;7.90;93.83;-19995.72;5114664;28;20338;-59
2022/02/18 07:40:42;;;;;;;7.83;2.27;;;6.90;99.90;;;7.93;93.84;-19996.72;5115064;28;20731;-60
2022/02/18 07:43:10;;;;;;;6.87;2.17;;;6.90;99.90;;;8.03;93.79;-20000.16;5115271;28;20237;-60
2022/02/18 07:46:01;;;;;;;7.00;2.40;;;6.90;99.90;;;7.84;93.35;-19993.66;5127320;27;20223;-59
2022/02/18 07:48:29;;;;;;;3.97;2.17;;;6.90;99.90;;;8.00;94.13;-19999.13;5135855;27;20580;-60
2022/02/18 07:50:57;;;;;;;6.13;2.40;;;6.80;99.90;;;8.05;92.97;-20000.84;5136552;27;20205;-59
2022/02/18 07:53:25;;;;;;;6.43;2.53;;;6.90;99.90;;;8.20;91.56;-20005.97;5135791;27;20248;-60
2022/02/18 07:55:53;;;;;;;6.37;2.17;;;7.00;99.90;;;8.00;92.08;-19999.13;5135692;27;20265;-60
2022/02/18 07:58:21;;;;;;;7.90;2.33;;;7.00;99.90;;;7.92;92.80;-19996.56;5135402;27;20249;-60
2022/02/18 08:00:51;;;;;;;8.30;2.60;;;6.90;99.90;;;8.14;92.88;-20003.91;5135873;27;20594;-60
2022/02/18 08:03:20;;;;;;;6.73;2.90;;;6.90;99.90;;;7.89;94.48;-19995.53;5135288;27;20198;-59
2022/02/18 08:05:48;;;;;;;7.10;3.30;;;6.90;99.90;;;7.67;96.00;-19988.00;5135778;27;20719;-59
2022/02/18 08:08:20;;;;;;;8.50;2.83;;;6.80;99.90;;;7.84;94.66;-19993.81;5135486;27;20250;-60
2022/02/18 08:10:48;;;;;;;7.93;2.40;;;6.80;99.90;;;7.92;94.23;-19996.38;5135439;27;20295;-60
2022/02/18 08:13:17;;;;;;;5.53;2.63;;;6.80;99.90;;;7.90;94.96;-19995.88;5135132;27;20233;-60
2022/02/18 08:15:45;;;;;;;8.70;2.60;;;6.80;99.90;;;7.89;95.33;-19995.53;5135312;27;20281;-59
2022/02/18 08:18:19;;;;;;;5.30;2.20;;;6.80;99.90;;;7.98;94.81;-19998.44;5115817;27;20221;-59
2022/02/18 08:20:49;;;;;;;6.87;2.80;;;6.90;99.90;;;7.88;96.65;-19995.19;5115048;28;20626;-59
2022/02/18 08:23:17;;;;;;;6.43;2.87;;;6.80;99.90;;;7.95;96.47;-19997.41;5113752;28;20722;-60
2022/02/18 08:25:45;;;;;;;8.97;2.60;;;6.90;99.90;;;7.95;97.37;-19997.41;5114218;28;20318;-60
2022/02/18 08:28:14;;;;;;;6.20;2.83;;;6.90;99.90;;;8.08;98.04;-20002.03;5114238;28;20254;-60
2022/02/18 08:30:42;;;;;;;5.57;2.33;;;7.00;99.90;;;8.15;95.85;-20004.25;5114655;28;20318;-60
2022/02/18 08:33:11;;;;;;;7.00;2.70;;;7.10;99.90;;;8.31;95.39;-20009.72;5114940;28;20314;-58
2022/02/18 08:35:39;;;;;;;5.67;2.50;;;7.10;99.90;;;8.35;93.91;-20011.09;5114763;28;20303;-60
2022/02/18 08:38:09;;;;;;;6.57;2.80;;;7.20;99.90;;;8.46;94.21;-20015.00;5131433;27;20242;-60
2022/02/18 08:40:37;;;;;;;6.70;2.70;;;7.30;99.90;;;8.46;92.12;-20015.00;5134946;27;20250;-60
2022/02/18 08:43:06;;;;;;;7.07;2.60;;;7.30;99.90;;;8.56;91.64;-20018.44;5134549;27;20219;-60
2022/02/18 08:45:35;;;;;;;10.03;2.57;;;7.40;99.90;;;8.60;90.87;-20019.63;5135205;27;20218;-60
2022/02/18 08:48:03;;;;;;;4.33;2.00;;;7.50;99.90;;;8.68;90.02;-20022.19;5135526;27;20219;-60
2022/02/18 08:50:31;;;;;;;6.40;2.23;;;7.50;99.90;;;8.71;89.04;-20023.38;5134711;27;20227;-60
2022/02/18 08:52:59;;;;;;;6.93;2.60;;;7.60;99.90;;;8.67;89.86;-20022.03;5134639;27;20222;-61
2022/02/18 08:55:29;;;;;;;7.83;2.80;;;7.60;99.90;;;8.55;91.02;-20017.91;5134475;27;20223;-60
2022/02/18 08:57:59;;;;;;;7.13;2.10;;;7.60;99.90;;;8.68;90.81;-20022.19;5134185;27;20222;-59
2022/02/18 09:00:28;;;;;;;6.73;2.30;;;7.70;99.90;;;8.97;88.62;-20032.28;5129165;27;21269;-61
2022/02/18 09:02:56;;;;;;;7.67;2.70;;;7.80;99.90;;;9.18;87.33;-20039.28;5132879;27;20297;-60
2022/02/18 09:05:25;;;;;;;10.70;2.90;;;7.90;99.90;;;9.43;88.06;-20047.81;5133179;27;20257;-60
2022/02/18 09:07:53;;;;;;;7.80;2.73;;;8.00;99.90;;;9.59;84.70;-20053.28;5133021;27;20311;-60
2022/02/18 09:10:21;;;;;;;5.57;3.00;;;8.10;99.90;;;9.47;84.63;-20049.34;5132693;27;20222;-60
2022/02/18 09:12:51;;;;;;;8.63;2.57;;;8.20;99.90;;;9.32;85.74;-20044.06;5112492;27;20257;-60
2022/02/18 09:15:19;;;;;;;8.03;2.80;;;8.20;99.90;;;9.08;86.54;-20036.03;5113720;27;20306;-60
2022/02/18 09:17:47;;;;;;;7.13;2.53;;;8.10;99.90;;;9.20;84.63;-20040.13;5113870;27;20248;-60
2022/02/18 09:20:15;;;;;;;8.27;2.80;;;8.10;99.90;;;8.98;87.15;-20032.44;5118239;27;20215;-60
2022/02/18 09:22:45;;;;;;;6.33;2.40;;;8.10;99.90;;;8.97;87.97;-20032.28;5112030;28;20227;-61
2022/02/18 09:25:13;;;;;;;7.33;2.93;;;7.90;99.90;;;9.20;85.08;-20040.13;5112379;28;20221;-59
2022/02/18 09:27:42;;;;;;;6.90;2.23;;;8.00;99.90;;;8.93;86.72;-20030.72;5110697;28;20712;-60
2022/02/18 09:30:13;;;;;;;7.30;2.40;;;7.90;99.90;;;8.84;85.53;-20027.66;5113543;27;20199;-59
2022/02/18 09:33:01;;;;;;;8.83;2.80;;;7.90;99.90;;;8.86;86.27;-20028.50;5100928;28;20226;-59
2022/02/18 09:35:29;;;;;;;8.03;2.57;;;7.90;99.90;;;9.06;85.23;-20035.34;5108346;27;20256;-61
2022/02/18 09:37:58;;;;;;;7.30;2.53;;;7.90;99.90;;;9.18;85.52;-20039.44;5112860;27;20335;-60
2022/02/18 09:40:26;;;;;;;9.33;2.90;;;8.00;99.90;;;9.21;86.44;-20040.47;5115280;27;20297;-60
2022/02/18 09:42:56;;;;;;;9.10;2.90;;;8.00;99.90;;;9.36;85.11;-20045.59;5111892;28;20219;-60
2022/02/18 09:45:26;;;;;;;9.03;2.33;;;8.10;99.90;;;9.10;86.44;-20036.72;5102783;28;20231;-60
2022/02/18 09:47:56;;;;;;;7.57;2.57;;;8.10;99.90;;;9.19;85.63;-20039.78;5112585;28;20278;-59
2022/02/18 09:50:24;;;;;;;6.10;2.43;;;8.10;99.90;;;9.31;86.00;-20043.88;5111846;28;20595;-60
2022/02/18 09:53:13;;;;;;;11.27;3.40;;;8.10;99.90;;;9.30;86.11;-20043.53;5115211;27;20273;-61
2022/02/18 09:55:41;;;;;;;7.97;2.50;;;8.10;99.90;;;9.01;87.06;-20033.47;5111845;28;20228;-60
2022/02/18 09:58:09;;;;;;;8.43;2.40;;;8.10;99.90;;;8.92;87.52;-20030.56;5111685;28;20229;-60
2022/02/18 10:00:39;;;;;;;8.80;2.50;;;8.00;99.90;;;9.10;87.46;-20036.72;5109767;28;20605;-60
2022/02/18 10:03:09;;;;;;;7.27;2.57;;;8.00;99.90;;;9.16;88.57;-20038.59;5110559;27;20208;-60
2022/02/18 10:05:37;;;;;;;7.80;2.50;;;8.10;99.90;;;9.25;86.88;-20041.66;5115229;27;20302;-60
2022/02/18 10:08:11;;;;;;;11.13;3.40;;;8.00;99.90;;;9.10;87.25;-20036.72;5111120;28;20326;-60
2022/02/18 10:10:42;;;;;;;8.00;3.03;;;8.10;99.90;;;9.12;88.44;-20037.41;5106336;28;20222;-59
2022/02/18 10:13:30;;;;;;;9.07;3.37;;;8.10;99.90;;;9.11;88.09;-20037.06;5110954;28;20237;-59
2022/02/18 10:16:04;;;;;;;8.37;2.90;;;8.10;99.90;;;9.08;88.60;-20035.84;5095351;28;20238;-60
2022/02/18 10:18:51;;;;;;;8.10;2.70;;;8.10;99.90;;;9.09;89.71;-20036.19;5111024;28;20194;-60
2022/02/18 10:21:23;;;;;;;9.67;3.00;;;8.10;99.90;;;9.06;90.49;-20035.19;5107790;28;20215;-60
2022/02/18 10:23:55;;;;;;;10.27;3.10;;;8.00;99.90;;;8.98;91.65;-20032.59;5110073;28;20268;-60
2022/02/18 10:26:40;;;;;;;10.33;2.93;;;8.00;99.90;;;9.32;89.74;-20044.06;5110804;28;20307;-60
2022/02/18 10:29:10;;;;;;;6.83;2.93;;;8.10;99.90;;;9.25;90.33;-20041.84;5107526;28;20302;-59
2022/02/18 10:31:40;;;;;;;10.13;2.57;;;8.10;99.90;;;9.51;88.66;-20050.72;5101524;28;20719;-61